sensor_id;sensor_type;location;lat;lon;timestamp;pressure;altitude;pressure_sealevel;temperature;humidity
53246;BME280;39569;51.090;-1.786;2023-04-01T00:01:36;99385.75;;;17.49;56.63
53246;BME280;39569;51.090;-1.786;2023-04-01T00:04:03;99387.72;;;17.80;55.46
53246;BME280;39569;51.090;-1.786;2023-04-01T00:06:31;99389.09;;;17.61;56.36
53246;BME280;39569;51.090;-1.786;2023-04-01T00:08:58;99392.81;;;17.55;56.36
53246;BME280;39569;51.090;-1.786;2023-04-01T00:11:24;99396.19;;;17.45;56.18
53246;BME280;39569;51.090;-1.786;2023-04-01T00:13:52;99395.78;;;17.37;56.59
53246;BME280;39569;51.090;-1.786;2023-04-01T00:16:19;99404.34;;;16.91;57.38
53246;BME280;39569;51.090;-1.786;2023-04-01T00:18:46;99404.97;;;17.36;56.72
53246;BME280;39569;51.090;-1.786;2023-04-01T00:21:13;99382.22;;;17.97;55.13
53246;BME280;39569;51.090;-1.786;2023-04-01T00:23:42;99402.19;;;17.96;55.05
53246;BME280;39569;51.090;-1.786;2023-04-01T00:26:09;99403.22;;;17.90;54.98
53246;BME280;39569;51.090;-1.786;2023-04-01T00:28:37;99406.38;;;17.00;57.32
53246;BME280;39569;51.090;-1.786;2023-04-01T00:31:05;99406.81;;;16.76;57.78
53246;BME280;39569;51.090;-1.786;2023-04-01T00:33:31;99406.69;;;17.25;56.47
53246;BME280;39569;51.090;-1.786;2023-04-01T00:36:06;99413.44;;;17.44;56.68
53246;BME280;39569;51.090;-1.786;2023-04-01T00:38:33;99415.50;;;17.54;55.96
53246;BME280;39569;51.090;-1.786;2023-04-01T00:41:02;99415.22;;;17.55;56.26
53246;BME280;39569;51.090;-1.786;2023-04-01T00:43:28;99413.63;;;17.81;55.15
53246;BME280;39569;51.090;-1.786;2023-04-01T00:45:55;99418.41;;;17.31;56.38
53246;BME280;39569;51.090;-1.786;2023-04-01T00:48:25;99424.53;;;17.64;56.02
53246;BME280;39569;51.090;-1.786;2023-04-01T00:50:56;99424.03;;;17.67;55.84
53246;BME280;39569;51.090;-1.786;2023-04-01T00:53:24;99420.63;;;17.77;55.04
53246;BME280;39569;51.090;-1.786;2023-04-01T00:55:55;99433.09;;;17.56;55.71
53246;BME280;39569;51.090;-1.786;2023-04-01T00:58:25;99416.97;;;17.66;56.04
53246;BME280;39569;51.090;-1.786;2023-04-01T01:00:54;99426.66;;;17.03;57.56
53246;BME280;39569;51.090;-1.786;2023-04-01T01:03:21;99428.69;;;17.12;57.31
53246;BME280;39569;51.090;-1.786;2023-04-01T01:06:22;99426.75;;;17.94;55.51
53246;BME280;39569;51.090;-1.786;2023-04-01T01:09:07;99429.28;;;17.79;55.69
53246;BME280;39569;51.090;-1.786;2023-04-01T01:11:37;99430.88;;;17.53;56.60
53246;BME280;39569;51.090;-1.786;2023-04-01T01:14:14;99433.16;;;17.45;56.63
53246;BME280;39569;51.090;-1.786;2023-04-01T01:16:50;99427.38;;;16.98;57.99
53246;BME280;39569;51.090;-1.786;2023-04-01T01:19:33;99427.31;;;16.77;58.44
53246;BME280;39569;51.090;-1.786;2023-04-01T01:22:22;99435.66;;;17.30;57.48
53246;BME280;39569;51.090;-1.786;2023-04-01T01:25:13;99446.66;;;17.45;57.36
53246;BME280;39569;51.090;-1.786;2023-04-01T01:27:49;99445.06;;;17.27;57.25
53246;BME280;39569;51.090;-1.786;2023-04-01T01:30:28;99442.19;;;17.50;56.95
53246;BME280;39569;51.090;-1.786;2023-04-01T01:33:08;99439.84;;;17.21;57.42
53246;BME280;39569;51.090;-1.786;2023-04-01T01:35:43;99444.22;;;16.55;59.08
53246;BME280;39569;51.090;-1.786;2023-04-01T01:38:16;99455.56;;;17.07;57.75
53246;BME280;39569;51.090;-1.786;2023-04-01T01:40:45;99451.19;;;17.01;57.74
53246;BME280;39569;51.090;-1.786;2023-04-01T01:43:15;99449.91;;;17.09;57.65
53246;BME280;39569;51.090;-1.786;2023-04-01T01:45:46;99456.72;;;17.11;57.45
53246;BME280;39569;51.090;-1.786;2023-04-01T01:48:16;99464.03;;;17.32;57.16
53246;BME280;39569;51.090;-1.786;2023-04-01T01:50:45;99465.25;;;17.41;57.01
53246;BME280;39569;51.090;-1.786;2023-04-01T01:53:13;99469.69;;;17.31;57.15
53246;BME280;39569;51.090;-1.786;2023-04-01T01:55:41;99468.28;;;17.28;57.11
53246;BME280;39569;51.090;-1.786;2023-04-01T01:58:13;99479.00;;;17.40;57.13
53246;BME280;39569;51.090;-1.786;2023-04-01T02:00:43;99471.00;;;17.28;57.31
53246;BME280;39569;51.090;-1.786;2023-04-01T02:03:13;99480.41;;;17.26;57.41
53246;BME280;39569;51.090;-1.786;2023-04-01T02:05:41;99478.56;;;16.60;59.21
53246;BME280;39569;51.090;-1.786;2023-04-01T02:08:13;99477.66;;;17.59;57.03
53246;BME280;39569;51.090;-1.786;2023-04-01T02:10:46;99481.91;;;17.00;58.21
53246;BME280;39569;51.090;-1.786;2023-04-01T02:13:18;99481.47;;;17.25;57.63
53246;BME280;39569;51.090;-1.786;2023-04-01T02:15:49;99474.31;;;16.64;59.55
53246;BME280;39569;51.090;-1.786;2023-04-01T02:18:18;99483.59;;;17.23;57.77
53246;BME280;39569;51.090;-1.786;2023-04-01T02:20:45;99481.06;;;17.00;58.38
53246;BME280;39569;51.090;-1.786;2023-04-01T02:23:14;99481.06;;;17.00;58.19
53246;BME280;39569;51.090;-1.786;2023-04-01T02:25:41;99481.66;;;16.68;59.13
53246;BME280;39569;51.090;-1.786;2023-04-01T02:28:10;99487.31;;;16.84;58.52
53246;BME280;39569;51.090;-1.786;2023-04-01T02:30:39;99489.81;;;16.57;59.12
53246;BME280;39569;51.090;-1.786;2023-04-01T02:33:07;99483.78;;;16.83;58.35
53246;BME280;39569;51.090;-1.786;2023-04-01T02:35:35;99485.91;;;16.81;58.60
53246;BME280;39569;51.090;-1.786;2023-04-01T02:38:03;99500.78;;;17.00;58.14
53246;BME280;39569;51.090;-1.786;2023-04-01T02:40:41;99486.34;;;16.90;58.42
53246;BME280;39569;51.090;-1.786;2023-04-01T02:43:08;99483.94;;;16.60;59.04
53246;BME280;39569;51.090;-1.786;2023-04-01T02:45:35;99491.63;;;16.68;58.56
53246;BME280;39569;51.090;-1.786;2023-04-01T02:48:02;99491.13;;;16.54;58.97
53246;BME280;39569;51.090;-1.786;2023-04-01T02:50:29;99489.69;;;16.80;58.24
53246;BME280;39569;51.090;-1.786;2023-04-01T02:52:56;99491.63;;;16.68;58.45
53246;BME280;39569;51.090;-1.786;2023-04-01T02:55:23;99494.16;;;16.75;58.50
53246;BME280;39569;51.090;-1.786;2023-04-01T02:57:51;99491.75;;;17.28;56.82
53246;BME280;39569;51.090;-1.786;2023-04-01T03:00:17;99492.34;;;17.30;56.85
53246;BME280;39569;51.090;-1.786;2023-04-01T03:02:44;99492.63;;;16.62;58.67
53246;BME280;39569;51.090;-1.786;2023-04-01T03:05:11;99490.41;;;16.76;58.45
53246;BME280;39569;51.090;-1.786;2023-04-01T03:07:38;99500.53;;;16.40;58.92
53246;BME280;39569;51.090;-1.786;2023-04-01T03:10:06;99510.72;;;16.50;58.98
53246;BME280;39569;51.090;-1.786;2023-04-01T03:12:32;99505.03;;;16.07;60.18
53246;BME280;39569;51.090;-1.786;2023-04-01T03:15:00;99503.41;;;16.62;58.64
53246;BME280;39569;51.090;-1.786;2023-04-01T03:17:27;99509.84;;;16.61;58.48
53246;BME280;39569;51.090;-1.786;2023-04-01T03:19:54;99509.28;;;16.76;58.50
53246;BME280;39569;51.090;-1.786;2023-04-01T03:22:21;99507.03;;;16.28;59.39
53246;BME280;39569;51.090;-1.786;2023-04-01T03:24:48;99514.00;;;17.18;57.38
53246;BME280;39569;51.090;-1.786;2023-04-01T03:27:15;99507.81;;;16.85;58.13
53246;BME280;39569;51.090;-1.786;2023-04-01T03:29:41;99513.44;;;16.66;58.44
53246;BME280;39569;51.090;-1.786;2023-04-01T03:32:09;99521.72;;;16.77;58.38
53246;BME280;39569;51.090;-1.786;2023-04-01T03:34:36;99520.97;;;16.98;57.10
53246;BME280;39569;51.090;-1.786;2023-04-01T03:37:03;99523.34;;;16.78;57.84
53246;BME280;39569;51.090;-1.786;2023-04-01T03:39:30;99523.66;;;17.14;57.06
53246;BME280;39569;51.090;-1.786;2023-04-01T03:41:57;99523.88;;;16.63;57.80
53246;BME280;39569;51.090;-1.786;2023-04-01T03:44:24;99522.09;;;17.18;57.33
53246;BME280;39569;51.090;-1.786;2023-04-01T03:46:50;99517.28;;;17.20;56.55
53246;BME280;39569;51.090;-1.786;2023-04-01T03:49:19;99519.59;;;17.12;56.92
53246;BME280;39569;51.090;-1.786;2023-04-01T03:51:45;99528.75;;;16.49;58.15
53246;BME280;39569;51.090;-1.786;2023-04-01T03:54:12;99532.25;;;17.11;56.91
53246;BME280;39569;51.090;-1.786;2023-04-01T03:56:39;99537.47;;;16.85;57.47
53246;BME280;39569;51.090;-1.786;2023-04-01T03:59:07;99536.03;;;16.94;57.55
53246;BME280;39569;51.090;-1.786;2023-04-01T04:01:34;99528.25;;;16.97;57.28
53246;BME280;39569;51.090;-1.786;2023-04-01T04:04:01;99536.38;;;16.52;57.60
53246;BME280;39569;51.090;-1.786;2023-04-01T04:06:30;99532.47;;;16.60;58.18
53246;BME280;39569;51.090;-1.786;2023-04-01T04:08:57;99528.38;;;16.46;57.98
53246;BME280;39569;51.090;-1.786;2023-04-01T04:11:24;99545.25;;;16.25;58.63
53246;BME280;39569;51.090;-1.786;2023-04-01T04:13:51;99545.19;;;16.48;58.89
53246;BME280;39569;51.090;-1.786;2023-04-01T04:16:18;99541.50;;;16.99;56.93
53246;BME280;39569;51.090;-1.786;2023-04-01T04:18:45;99548.84;;;16.87;56.77
53246;BME280;39569;51.090;-1.786;2023-04-01T04:21:13;99547.22;;;17.02;56.70
53246;BME280;39569;51.090;-1.786;2023-04-01T04:23:41;99554.72;;;16.84;57.73
53246;BME280;39569;51.090;-1.786;2023-04-01T04:26:10;99540.34;;;16.78;57.54
53246;BME280;39569;51.090;-1.786;2023-04-01T04:28:38;99550.34;;;16.38;58.25
53246;BME280;39569;51.090;-1.786;2023-04-01T04:31:05;99556.16;;;16.46;58.33
53246;BME280;39569;51.090;-1.786;2023-04-01T04:33:32;99553.00;;;16.94;56.74
53246;BME280;39569;51.090;-1.786;2023-04-01T04:35:59;99559.22;;;16.78;57.52
53246;BME280;39569;51.090;-1.786;2023-04-01T04:38:26;99554.50;;;16.29;58.57
53246;BME280;39569;51.090;-1.786;2023-04-01T04:40:54;99554.56;;;16.90;57.49
53246;BME280;39569;51.090;-1.786;2023-04-01T04:43:21;99565.69;;;16.94;57.30
53246;BME280;39569;51.090;-1.786;2023-04-01T04:45:48;99565.88;;;16.19;58.88
53246;BME280;39569;51.090;-1.786;2023-04-01T04:48:16;99565.75;;;16.82;57.47
53246;BME280;39569;51.090;-1.786;2023-04-01T04:50:46;99563.00;;;16.94;57.00
53246;BME280;39569;51.090;-1.786;2023-04-01T04:53:13;99565.13;;;16.35;57.87
53246;BME280;39569;51.090;-1.786;2023-04-01T04:55:43;99570.47;;;16.47;58.53
53246;BME280;39569;51.090;-1.786;2023-04-01T04:58:11;99570.69;;;16.57;58.02
53246;BME280;39569;51.090;-1.786;2023-04-01T05:00:37;99566.19;;;16.62;57.26
53246;BME280;39569;51.090;-1.786;2023-04-01T05:03:04;99572.94;;;16.77;56.97
53246;BME280;39569;51.090;-1.786;2023-04-01T05:05:31;99581.03;;;16.77;57.42
53246;BME280;39569;51.090;-1.786;2023-04-01T05:07:58;99587.28;;;15.86;59.11
53246;BME280;39569;51.090;-1.786;2023-04-01T05:10:24;99579.97;;;16.78;57.25
53246;BME280;39569;51.090;-1.786;2023-04-01T05:12:51;99586.69;;;16.75;57.12
53246;BME280;39569;51.090;-1.786;2023-04-01T05:15:19;99594.47;;;16.88;56.43
53246;BME280;39569;51.090;-1.786;2023-04-01T05:17:46;99592.13;;;16.63;56.99
53246;BME280;39569;51.090;-1.786;2023-04-01T05:20:13;99593.66;;;17.04;56.39
53246;BME280;39569;51.090;-1.786;2023-04-01T05:22:41;99599.66;;;17.56;54.83
53246;BME280;39569;51.090;-1.786;2023-04-01T05:25:09;99603.31;;;17.17;55.96
53246;BME280;39569;51.090;-1.786;2023-04-01T05:27:36;99607.63;;;16.56;57.32
53246;BME280;39569;51.090;-1.786;2023-04-01T05:30:03;99613.41;;;16.77;56.72
53246;BME280;39569;51.090;-1.786;2023-04-01T05:32:32;99608.13;;;17.15;56.54
53246;BME280;39569;51.090;-1.786;2023-04-01T05:34:59;99614.06;;;16.55;57.50
53246;BME280;39569;51.090;-1.786;2023-04-01T05:37:25;99610.94;;;16.75;56.88
53246;BME280;39569;51.090;-1.786;2023-04-01T05:39:52;99619.94;;;17.42;54.96
53246;BME280;39569;51.090;-1.786;2023-04-01T05:42:19;99617.22;;;16.64;57.06
53246;BME280;39569;51.090;-1.786;2023-04-01T05:44:46;99622.06;;;16.79;57.10
53246;BME280;39569;51.090;-1.786;2023-04-01T05:47:12;99624.25;;;17.10;56.41
53246;BME280;39569;51.090;-1.786;2023-04-01T05:49:41;99623.94;;;17.23;56.06
53246;BME280;39569;51.090;-1.786;2023-04-01T05:52:08;99627.53;;;16.55;57.56
53246;BME280;39569;51.090;-1.786;2023-04-01T05:54:34;99631.72;;;16.12;58.21
53246;BME280;39569;51.090;-1.786;2023-04-01T05:57:01;99633.94;;;16.94;56.48
53246;BME280;39569;51.090;-1.786;2023-04-01T05:59:28;99626.34;;;16.91;57.03
53246;BME280;39569;51.090;-1.786;2023-04-01T06:01:56;99631.34;;;16.99;56.59
53246;BME280;39569;51.090;-1.786;2023-04-01T06:04:23;99632.28;;;17.38;55.76
53246;BME280;39569;51.090;-1.786;2023-04-01T06:06:51;99630.63;;;17.20;56.50
53246;BME280;39569;51.090;-1.786;2023-04-01T06:09:20;99637.66;;;16.77;57.47
53246;BME280;39569;51.090;-1.786;2023-04-01T06:12:17;99635.97;;;17.32;55.82
53246;BME280;39569;51.090;-1.786;2023-04-01T06:14:54;99645.88;;;16.98;56.45
53246;BME280;39569;51.090;-1.786;2023-04-01T06:17:28;99645.13;;;17.31;55.90
53246;BME280;39569;51.090;-1.786;2023-04-01T06:20:02;99639.47;;;17.32;55.79
53246;BME280;39569;51.090;-1.786;2023-04-01T06:22:47;99648.81;;;17.41;55.64
53246;BME280;39569;51.090;-1.786;2023-04-01T06:25:35;99657.75;;;17.42;55.57
53246;BME280;39569;51.090;-1.786;2023-04-01T06:31:02;99658.91;;;16.73;57.42
53246;BME280;39569;51.090;-1.786;2023-04-01T06:33:49;99655.34;;;17.12;56.25
53246;BME280;39569;51.090;-1.786;2023-04-01T06:36:33;99662.19;;;17.20;56.17
53246;BME280;39569;51.090;-1.786;2023-04-01T06:39:17;99665.66;;;17.32;55.90
53246;BME280;39569;51.090;-1.786;2023-04-01T06:42:11;99668.28;;;17.93;54.89
53246;BME280;39569;51.090;-1.786;2023-04-01T06:44:43;99662.25;;;18.24;53.63
53246;BME280;39569;51.090;-1.786;2023-04-01T06:47:25;99669.63;;;17.57;55.45
53246;BME280;39569;51.090;-1.786;2023-04-01T06:49:59;99673.66;;;17.27;56.74
53246;BME280;39569;51.090;-1.786;2023-04-01T06:52:41;99678.47;;;17.70;55.37
53246;BME280;39569;51.090;-1.786;2023-04-01T06:55:24;99684.94;;;17.24;56.27
53246;BME280;39569;51.090;-1.786;2023-04-01T06:57:54;99691.47;;;17.73;55.17
53246;BME280;39569;51.090;-1.786;2023-04-01T07:00:27;99686.59;;;18.08;54.52
53246;BME280;39569;51.090;-1.786;2023-04-01T07:03:02;99696.63;;;17.57;55.71
53246;BME280;39569;51.090;-1.786;2023-04-01T07:05:33;99692.63;;;17.60;55.38
53246;BME280;39569;51.090;-1.786;2023-04-01T07:08:04;99698.50;;;17.57;56.01
53246;BME280;39569;51.090;-1.786;2023-04-01T07:10:41;99711.66;;;17.53;55.74
53246;BME280;39569;51.090;-1.786;2023-04-01T07:13:13;99709.47;;;18.38;53.93
53246;BME280;39569;51.090;-1.786;2023-04-01T07:15:54;99710.50;;;18.32;53.57
53246;BME280;39569;51.090;-1.786;2023-04-01T07:18:25;99709.09;;;18.30;53.95
53246;BME280;39569;51.090;-1.786;2023-04-01T07:20:55;99712.78;;;18.24;54.02
53246;BME280;39569;51.090;-1.786;2023-04-01T07:23:25;99714.13;;;18.05;54.60
53246;BME280;39569;51.090;-1.786;2023-04-01T07:25:58;99716.53;;;18.01;54.56
53246;BME280;39569;51.090;-1.786;2023-04-01T07:28:30;99715.56;;;18.29;54.03
53246;BME280;39569;51.090;-1.786;2023-04-01T07:31:07;99719.69;;;17.98;54.48
53246;BME280;39569;51.090;-1.786;2023-04-01T07:33:43;99730.56;;;18.03;54.65
53246;BME280;39569;51.090;-1.786;2023-04-01T07:36:16;99730.00;;;18.18;53.94
53246;BME280;39569;51.090;-1.786;2023-04-01T07:38:49;99735.75;;;18.21;54.38
53246;BME280;39569;51.090;-1.786;2023-04-01T07:41:26;99728.78;;;18.63;53.31
53246;BME280;39569;51.090;-1.786;2023-04-01T07:44:03;99737.16;;;18.62;53.34
53246;BME280;39569;51.090;-1.786;2023-04-01T07:46:56;99728.44;;;19.03;52.56
53246;BME280;39569;51.090;-1.786;2023-04-01T07:49:30;99744.28;;;18.35;54.23
53246;BME280;39569;51.090;-1.786;2023-04-01T07:52:06;99749.56;;;18.41;54.25
53246;BME280;39569;51.090;-1.786;2023-04-01T07:54:40;99748.09;;;18.72;53.54
53246;BME280;39569;51.090;-1.786;2023-04-01T07:57:15;99748.34;;;18.32;54.69
53246;BME280;39569;51.090;-1.786;2023-04-01T07:59:53;99753.44;;;18.29;54.28
53246;BME280;39569;51.090;-1.786;2023-04-01T08:02:31;99757.91;;;17.57;55.92
53246;BME280;39569;51.090;-1.786;2023-04-01T08:05:13;99766.34;;;17.60;55.96
53246;BME280;39569;51.090;-1.786;2023-04-01T08:07:50;99761.63;;;17.67;55.61
53246;BME280;39569;51.090;-1.786;2023-04-01T08:10:24;99763.19;;;17.80;54.80
53246;BME280;39569;51.090;-1.786;2023-04-01T08:13:02;99771.53;;;17.79;55.14
53246;BME280;39569;51.090;-1.786;2023-04-01T08:15:38;99763.63;;;17.60;55.08
53246;BME280;39569;51.090;-1.786;2023-04-01T08:18:13;99774.66;;;18.04;54.58
53246;BME280;39569;51.090;-1.786;2023-04-01T08:20:47;99779.63;;;18.28;53.77
53246;BME280;39569;51.090;-1.786;2023-04-01T08:23:17;99776.13;;;17.95;54.95
53246;BME280;39569;51.090;-1.786;2023-04-01T08:25:50;99779.78;;;18.05;54.41
53246;BME280;39569;51.090;-1.786;2023-04-01T08:28:24;99781.13;;;18.19;54.46
53246;BME280;39569;51.090;-1.786;2023-04-01T08:30:55;99778.66;;;18.51;53.29
53246;BME280;39569;51.090;-1.786;2023-04-01T08:33:25;99792.91;;;18.30;53.83
53246;BME280;39569;51.090;-1.786;2023-04-01T08:35:57;99796.50;;;17.86;54.66
53246;BME280;39569;51.090;-1.786;2023-04-01T08:38:30;99796.13;;;17.94;54.93
53246;BME280;39569;51.090;-1.786;2023-04-01T08:41:05;99799.88;;;18.09;54.57
53246;BME280;39569;51.090;-1.786;2023-04-01T08:46:55;99802.09;;;18.12;54.32
53246;BME280;39569;51.090;-1.786;2023-04-01T08:49:37;99810.53;;;18.49;53.57
53246;BME280;39569;51.090;-1.786;2023-04-01T08:52:28;99817.75;;;17.65;55.64
53246;BME280;39569;51.090;-1.786;2023-04-01T08:55:22;99819.03;;;18.24;54.45
53246;BME280;39569;51.090;-1.786;2023-04-01T08:58:06;99820.00;;;18.02;54.77
53246;BME280;39569;51.090;-1.786;2023-04-01T09:00:43;99815.03;;;18.27;54.36
53246;BME280;39569;51.090;-1.786;2023-04-01T09:06:39;99819.69;;;18.15;54.62
53246;BME280;39569;51.090;-1.786;2023-04-01T09:09:37;99824.25;;;17.98;55.17
53246;BME280;39569;51.090;-1.786;2023-04-01T09:12:23;99824.34;;;17.86;54.77
53246;BME280;39569;51.090;-1.786;2023-04-01T09:15:27;99828.44;;;18.22;53.80
53246;BME280;39569;51.090;-1.786;2023-04-01T09:18:13;99835.81;;;18.10;54.32
53246;BME280;39569;51.090;-1.786;2023-04-01T09:23:38;99838.81;;;18.41;54.17
53246;BME280;39569;51.090;-1.786;2023-04-01T09:26:27;99841.91;;;18.50;53.99
53246;BME280;39569;51.090;-1.786;2023-04-01T09:29:04;99841.88;;;18.17;54.54
53246;BME280;39569;51.090;-1.786;2023-04-01T09:31:52;99843.84;;;18.71;53.77
53246;BME280;39569;51.090;-1.786;2023-04-01T09:34:36;99843.75;;;18.83;53.50
53246;BME280;39569;51.090;-1.786;2023-04-01T09:37:18;99843.72;;;18.99;52.95
53246;BME280;39569;51.090;-1.786;2023-04-01T09:39:58;99848.16;;;18.89;53.32
53246;BME280;39569;51.090;-1.786;2023-04-01T09:42:53;99848.34;;;19.04;53.26
53246;BME280;39569;51.090;-1.786;2023-04-01T09:45:35;99856.31;;;19.10;52.73
53246;BME280;39569;51.090;-1.786;2023-04-01T09:48:14;99851.31;;;19.24;52.17
53246;BME280;39569;51.090;-1.786;2023-04-01T09:50:51;99857.09;;;18.51;53.80
53246;BME280;39569;51.090;-1.786;2023-04-01T09:53:38;99855.22;;;19.11;52.53
53246;BME280;39569;51.090;-1.786;2023-04-01T10:09:09;99868.13;;;19.26;52.72
53246;BME280;39569;51.090;-1.786;2023-04-01T10:12:03;99887.28;;;19.84;51.48
53246;BME280;39569;51.090;-1.786;2023-04-01T10:15:05;99887.53;;;20.09;51.46
53246;BME280;39569;51.090;-1.786;2023-04-01T10:20:46;99892.75;;;20.16;51.19
53246;BME280;39569;51.090;-1.786;2023-04-01T10:26:42;99900.59;;;20.76;50.39
53246;BME280;39569;51.090;-1.786;2023-04-01T10:29:47;99908.81;;;20.86;50.53
53246;BME280;39569;51.090;-1.786;2023-04-01T10:48:51;99938.69;;;20.01;51.57
53246;BME280;39569;51.090;-1.786;2023-04-01T10:54:46;99946.81;;;20.49;50.89
53246;BME280;39569;51.090;-1.786;2023-04-01T10:57:43;99950.56;;;20.80;50.00
53246;BME280;39569;51.090;-1.786;2023-04-01T11:01:07;99965.06;;;20.59;50.56
53246;BME280;39569;51.090;-1.786;2023-04-01T11:04:10;99961.88;;;20.67;50.12
53246;BME280;39569;51.090;-1.786;2023-04-01T11:10:28;99967.88;;;21.00;49.67
53246;BME280;39569;51.090;-1.786;2023-04-01T11:13:24;99967.25;;;21.30;49.53
53246;BME280;39569;51.090;-1.786;2023-04-01T11:16:32;99967.44;;;21.70;48.68
53246;BME280;39569;51.090;-1.786;2023-04-01T11:19:21;99963.38;;;21.68;48.98
53246;BME280;39569;51.090;-1.786;2023-04-01T11:22:29;99973.00;;;21.90;48.10
53246;BME280;39569;51.090;-1.786;2023-04-01T11:25:13;99972.00;;;22.16;47.72
53246;BME280;39569;51.090;-1.786;2023-04-01T11:30:53;99976.88;;;22.04;48.10
53246;BME280;39569;51.090;-1.786;2023-04-01T11:33:34;99978.84;;;22.39;47.53
53246;BME280;39569;51.090;-1.786;2023-04-01T11:36:19;99983.81;;;22.87;46.53
53246;BME280;39569;51.090;-1.786;2023-04-01T11:39:17;99993.63;;;22.83;46.02
53246;BME280;39569;51.090;-1.786;2023-04-01T11:41:53;99990.59;;;23.40;44.77
53246;BME280;39569;51.090;-1.786;2023-04-01T11:44:25;99995.25;;;22.74;45.10
53246;BME280;39569;51.090;-1.786;2023-04-01T11:47:09;99999.78;;;22.38;46.78
53246;BME280;39569;51.090;-1.786;2023-04-01T11:49:58;100010.59;;;21.15;47.73
53246;BME280;39569;51.090;-1.786;2023-04-01T11:52:45;100020.25;;;21.32;47.94
53246;BME280;39569;51.090;-1.786;2023-04-01T11:55:26;100018.63;;;21.36;48.39
53246;BME280;39569;51.090;-1.786;2023-04-01T11:58:23;100016.06;;;22.08;47.19
53246;BME280;39569;51.090;-1.786;2023-04-01T12:01:04;100016.75;;;23.31;45.11
53246;BME280;39569;51.090;-1.786;2023-04-01T12:04:04;100021.38;;;23.10;45.20
53246;BME280;39569;51.090;-1.786;2023-04-01T12:06:37;100027.09;;;23.24;45.35
53246;BME280;39569;51.090;-1.786;2023-04-01T12:09:13;100032.50;;;22.54;45.81
53246;BME280;39569;51.090;-1.786;2023-04-01T12:11:51;100038.22;;;22.47;46.71
53246;BME280;39569;51.090;-1.786;2023-04-01T12:14:27;100040.91;;;22.42;46.26
53246;BME280;39569;51.090;-1.786;2023-04-01T12:17:03;100042.06;;;22.66;45.96
53246;BME280;39569;51.090;-1.786;2023-04-01T12:19:38;100045.63;;;22.87;46.51
53246;BME280;39569;51.090;-1.786;2023-04-01T12:22:27;100051.94;;;22.97;44.57
53246;BME280;39569;51.090;-1.786;2023-04-01T12:25:05;100054.06;;;22.90;44.86
53246;BME280;39569;51.090;-1.786;2023-04-01T12:27:42;100059.00;;;22.93;44.34
53246;BME280;39569;51.090;-1.786;2023-04-01T12:30:25;100059.97;;;22.47;45.47
53246;BME280;39569;51.090;-1.786;2023-04-01T12:33:04;100073.00;;;22.35;45.96
53246;BME280;39569;51.090;-1.786;2023-04-01T12:35:47;100078.00;;;21.96;47.03
53246;BME280;39569;51.090;-1.786;2023-04-01T12:38:26;100076.91;;;22.64;44.38
53246;BME280;39569;51.090;-1.786;2023-04-01T12:41:08;100078.28;;;22.62;45.96
53246;BME280;39569;51.090;-1.786;2023-04-01T12:44:00;100080.47;;;23.85;43.07
53246;BME280;39569;51.090;-1.786;2023-04-01T12:46:42;100084.38;;;23.39;43.41
53246;BME280;39569;51.090;-1.786;2023-04-01T12:49:31;100091.97;;;23.12;42.92
53246;BME280;39569;51.090;-1.786;2023-04-01T12:52:05;100094.41;;;23.18;43.04
53246;BME280;39569;51.090;-1.786;2023-04-01T12:55:08;100091.44;;;23.55;42.86
53246;BME280;39569;51.090;-1.786;2023-04-01T13:01:30;100112.09;;;22.86;44.70
53246;BME280;39569;51.090;-1.786;2023-04-01T13:04:29;100117.47;;;21.99;45.74
53246;BME280;39569;51.090;-1.786;2023-04-01T13:07:12;100109.06;;;22.67;45.31
53246;BME280;39569;51.090;-1.786;2023-04-01T13:09:52;100114.59;;;23.02;43.70
53246;BME280;39569;51.090;-1.786;2023-04-01T13:12:37;100117.69;;;25.32;40.02
53246;BME280;39569;51.090;-1.786;2023-04-01T13:15:20;100121.69;;;25.79;39.30
53246;BME280;39569;51.090;-1.786;2023-04-01T13:17:53;100120.19;;;25.63;38.92
53246;BME280;39569;51.090;-1.786;2023-04-01T13:20:35;100129.94;;;26.02;38.12
53246;BME280;39569;51.090;-1.786;2023-04-01T13:23:14;100130.78;;;25.02;40.20
53246;BME280;39569;51.090;-1.786;2023-04-01T13:25:48;100135.03;;;23.80;42.38
53246;BME280;39569;51.090;-1.786;2023-04-01T13:28:21;100135.41;;;25.01;39.63
53246;BME280;39569;51.090;-1.786;2023-04-01T13:30:57;100136.72;;;24.60;40.67
53246;BME280;39569;51.090;-1.786;2023-04-01T13:33:31;100147.75;;;22.69;43.44
53246;BME280;39569;51.090;-1.786;2023-04-01T13:36:10;100156.97;;;22.11;45.35
53246;BME280;39569;51.090;-1.786;2023-04-01T13:38:48;100159.25;;;23.01;43.49
53246;BME280;39569;51.090;-1.786;2023-04-01T13:41:25;100175.28;;;22.31;44.68
53246;BME280;39569;51.090;-1.786;2023-04-01T13:44:02;100182.94;;;21.29;45.78
53246;BME280;39569;51.090;-1.786;2023-04-01T13:46:47;100191.72;;;20.88;45.96
53246;BME280;39569;51.090;-1.786;2023-04-01T13:49:31;100190.34;;;21.33;45.88
53246;BME280;39569;51.090;-1.786;2023-04-01T13:52:11;100192.19;;;21.60;45.02
53246;BME280;39569;51.090;-1.786;2023-04-01T13:54:57;100194.22;;;21.42;45.96
53246;BME280;39569;51.090;-1.786;2023-04-01T13:57:42;100195.84;;;21.12;46.13
53246;BME280;39569;51.090;-1.786;2023-04-01T14:00:27;100199.25;;;21.87;44.68
53246;BME280;39569;51.090;-1.786;2023-04-01T14:03:18;100213.22;;;21.69;44.35
53246;BME280;39569;51.090;-1.786;2023-04-01T14:05:59;100208.22;;;21.88;43.79
53246;BME280;39569;51.090;-1.786;2023-04-01T14:08:36;100222.53;;;21.78;44.01
53246;BME280;39569;51.090;-1.786;2023-04-01T14:11:15;100227.66;;;20.73;46.20
53246;BME280;39569;51.090;-1.786;2023-04-01T14:13:50;100232.00;;;20.74;46.28
53246;BME280;39569;51.090;-1.786;2023-04-01T14:19:32;100239.69;;;20.61;46.67
53246;BME280;39569;51.090;-1.786;2023-04-01T14:22:14;100248.34;;;20.58;46.57
53246;BME280;39569;51.090;-1.786;2023-04-01T14:25:17;100254.09;;;20.39;46.70
53246;BME280;39569;51.090;-1.786;2023-04-01T14:28:01;100250.94;;;20.14;47.52
53246;BME280;39569;51.090;-1.786;2023-04-01T14:30:40;100259.41;;;20.01;46.46
53246;BME280;39569;51.090;-1.786;2023-04-01T14:33:23;100262.00;;;20.24;46.66
53246;BME280;39569;51.090;-1.786;2023-04-01T14:38:52;100274.06;;;20.93;45.74